sensor_id;sensor_type;location;lat;lon;timestamp;P1;durP1;ratioP1;P2;durP2;ratioP2
76396;SDS011;66045;51.622;5.526;2023-01-15T00:01:37;7.30;;;2.97;;
76396;SDS011;66045;51.622;5.526;2023-01-15T00:04:03;6.80;;;2.70;;
76396;SDS011;66045;51.622;5.526;2023-01-15T00:06:30;7.38;;;2.90;;
76396;SDS011;66045;51.622;5.526;2023-01-15T00:08:59;6.25;;;2.60;;
76396;SDS011;66045;51.622;5.526;2023-01-15T00:11:24;7.70;;;2.33;;
76396;SDS011;66045;51.622;5.526;2023-01-15T00:13:49;6.22;;;2.45;;
76396;SDS011;66045;51.622;5.526;2023-01-15T00:16:17;7.13;;;2.25;;
76396;SDS011;66045;51.622;5.526;2023-01-15T00:18:48;5.20;;;2.42;;
76396;SDS011;66045;51.622;5.526;2023-01-15T00:21:14;5.68;;;1.98;;
76396;SDS011;66045;51.622;5.526;2023-01-15T00:23:40;5.53;;;1.90;;
76396;SDS011;66045;51.622;5.526;2023-01-15T00:26:26;5.57;;;2.33;;
76396;SDS011;66045;51.622;5.526;2023-01-15T00:29:13;5.38;;;2.70;;
76396;SDS011;66045;51.622;5.526;2023-01-15T00:31:38;5.00;;;2.17;;
76396;SDS011;66045;51.622;5.526;2023-01-15T00:34:04;5.00;;;1.60;;
76396;SDS011;66045;51.622;5.526;2023-01-15T00:36:29;6.05;;;2.25;;
76396;SDS011;66045;51.622;5.526;2023-01-15T00:38:55;7.55;;;2.30;;
76396;SDS011;66045;51.622;5.526;2023-01-15T00:41:20;5.60;;;1.95;;
76396;SDS011;66045;51.622;5.526;2023-01-15T00:43:46;4.03;;;1.83;;
76396;SDS011;66045;51.622;5.526;2023-01-15T00:46:11;4.15;;;1.80;;
76396;SDS011;66045;51.622;5.526;2023-01-15T00:48:37;5.88;;;2.10;;
76396;SDS011;66045;51.622;5.526;2023-01-15T00:51:03;4.50;;;1.92;;
76396;SDS011;66045;51.622;5.526;2023-01-15T00:53:29;5.13;;;1.85;;
76396;SDS011;66045;51.622;5.526;2023-01-15T00:55:55;4.97;;;1.98;;
76396;SDS011;66045;51.622;5.526;2023-01-15T00:58:20;3.60;;;1.88;;
76396;SDS011;66045;51.622;5.526;2023-01-15T01:00:46;4.72;;;1.92;;
76396;SDS011;66045;51.622;5.526;2023-01-15T01:03:17;4.88;;;1.90;;
76396;SDS011;66045;51.622;5.526;2023-01-15T01:05:42;6.38;;;1.80;;
76396;SDS011;66045;51.622;5.526;2023-01-15T01:08:07;4.35;;;2.05;;
76396;SDS011;66045;51.622;5.526;2023-01-15T01:10:33;5.13;;;2.08;;
76396;SDS011;66045;51.622;5.526;2023-01-15T01:12:58;5.50;;;1.90;;
76396;SDS011;66045;51.622;5.526;2023-01-15T01:15:23;4.15;;;1.55;;
76396;SDS011;66045;51.622;5.526;2023-01-15T01:17:49;5.68;;;1.83;;
76396;SDS011;66045;51.622;5.526;2023-01-15T01:20:15;3.97;;;1.60;;
76396;SDS011;66045;51.622;5.526;2023-01-15T01:22:42;3.58;;;1.40;;
76396;SDS011;66045;51.622;5.526;2023-01-15T01:25:08;5.47;;;1.80;;
76396;SDS011;66045;51.622;5.526;2023-01-15T01:27:33;3.67;;;1.60;;
76396;SDS011;66045;51.622;5.526;2023-01-15T01:29:59;4.68;;;2.05;;
76396;SDS011;66045;51.622;5.526;2023-01-15T01:32:24;4.68;;;1.77;;
76396;SDS011;66045;51.622;5.526;2023-01-15T01:34:50;4.63;;;1.90;;
76396;SDS011;66045;51.622;5.526;2023-01-15T01:37:15;4.30;;;1.48;;
76396;SDS011;66045;51.622;5.526;2023-01-15T01:39:41;4.63;;;1.75;;
76396;SDS011;66045;51.622;5.526;2023-01-15T01:42:13;5.35;;;1.70;;
76396;SDS011;66045;51.622;5.526;2023-01-15T01:47:09;6.05;;;1.70;;
76396;SDS011;66045;51.622;5.526;2023-01-15T01:49:39;3.95;;;1.60;;
76396;SDS011;66045;51.622;5.526;2023-01-15T01:52:08;4.97;;;1.70;;
76396;SDS011;66045;51.622;5.526;2023-01-15T01:54:37;5.40;;;1.75;;
76396;SDS011;66045;51.622;5.526;2023-01-15T01:57:04;5.68;;;1.80;;
76396;SDS011;66045;51.622;5.526;2023-01-15T01:59:31;3.58;;;1.55;;
76396;SDS011;66045;51.622;5.526;2023-01-15T02:01:57;2.72;;;1.33;;
76396;SDS011;66045;51.622;5.526;2023-01-15T02:04:24;4.50;;;1.52;;
76396;SDS011;66045;51.622;5.526;2023-01-15T02:06:52;3.95;;;1.70;;
76396;SDS011;66045;51.622;5.526;2023-01-15T02:09:18;3.72;;;1.50;;
76396;SDS011;66045;51.622;5.526;2023-01-15T02:11:43;4.40;;;1.42;;
76396;SDS011;66045;51.622;5.526;2023-01-15T02:24:42;4.13;;;1.35;;
76396;SDS011;66045;51.622;5.526;2023-01-15T02:27:20;3.38;;;1.10;;
76396;SDS011;66045;51.622;5.526;2023-01-15T02:32:34;2.85;;;1.38;;
76396;SDS011;66045;51.622;5.526;2023-01-15T02:38:01;3.58;;;1.40;;
76396;SDS011;66045;51.622;5.526;2023-01-15T02:40:31;3.63;;;1.30;;
76396;SDS011;66045;51.622;5.526;2023-01-15T02:42:58;2.35;;;1.20;;
76396;SDS011;66045;51.622;5.526;2023-01-15T02:45:30;2.58;;;1.30;;
76396;SDS011;66045;51.622;5.526;2023-01-15T02:48:04;4.65;;;1.55;;
76396;SDS011;66045;51.622;5.526;2023-01-15T02:50:37;3.15;;;1.50;;
76396;SDS011;66045;51.622;5.526;2023-01-15T02:53:08;3.30;;;1.35;;
76396;SDS011;66045;51.622;5.526;2023-01-15T02:55:39;4.07;;;1.48;;
76396;SDS011;66045;51.622;5.526;2023-01-15T02:58:09;3.55;;;1.40;;
76396;SDS011;66045;51.622;5.526;2023-01-15T03:00:39;2.88;;;1.30;;
76396;SDS011;66045;51.622;5.526;2023-01-15T03:03:09;2.92;;;1.23;;
76396;SDS011;66045;51.622;5.526;2023-01-15T03:05:42;2.92;;;1.40;;
76396;SDS011;66045;51.622;5.526;2023-01-15T03:08:15;2.35;;;0.98;;
76396;SDS011;66045;51.622;5.526;2023-01-15T03:10:46;2.78;;;1.30;;
76396;SDS011;66045;51.622;5.526;2023-01-15T03:13:20;3.95;;;1.13;;
76396;SDS011;66045;51.622;5.526;2023-01-15T03:16:01;3.58;;;1.27;;
76396;SDS011;66045;51.622;5.526;2023-01-15T03:19:00;3.10;;;1.40;;
76396;SDS011;66045;51.622;5.526;2023-01-15T03:21:39;3.08;;;1.27;;
76396;SDS011;66045;51.622;5.526;2023-01-15T03:24:07;4.05;;;1.50;;
76396;SDS011;66045;51.622;5.526;2023-01-15T03:26:35;4.75;;;1.20;;
76396;SDS011;66045;51.622;5.526;2023-01-15T03:29:02;2.90;;;1.33;;
76396;SDS011;66045;51.622;5.526;2023-01-15T03:31:30;4.90;;;1.40;;
76396;SDS011;66045;51.622;5.526;2023-01-15T03:33:57;4.38;;;1.33;;
76396;SDS011;66045;51.622;5.526;2023-01-15T03:36:22;2.97;;;1.15;;
76396;SDS011;66045;51.622;5.526;2023-01-15T03:38:48;2.78;;;1.20;;
76396;SDS011;66045;51.622;5.526;2023-01-15T03:41:18;3.47;;;1.20;;
76396;SDS011;66045;51.622;5.526;2023-01-15T03:46:34;3.20;;;1.25;;
76396;SDS011;66045;51.622;5.526;2023-01-15T03:49:58;3.80;;;1.25;;
76396;SDS011;66045;51.622;5.526;2023-01-15T03:52:21;2.95;;;1.40;;
76396;SDS011;66045;51.622;5.526;2023-01-15T04:00:00;2.72;;;1.08;;
76396;SDS011;66045;51.622;5.526;2023-01-15T04:02:33;3.13;;;1.50;;
76396;SDS011;66045;51.622;5.526;2023-01-15T04:05:00;3.72;;;1.17;;
76396;SDS011;66045;51.622;5.526;2023-01-15T04:07:27;3.90;;;1.30;;
76396;SDS011;66045;51.622;5.526;2023-01-15T04:09:54;3.08;;;1.02;;
76396;SDS011;66045;51.622;5.526;2023-01-15T04:12:20;5.05;;;1.50;;
76396;SDS011;66045;51.622;5.526;2023-01-15T04:14:45;2.42;;;1.10;;
76396;SDS011;66045;51.622;5.526;2023-01-15T04:17:10;2.13;;;1.08;;
76396;SDS011;66045;51.622;5.526;2023-01-15T04:19:36;3.60;;;1.10;;
76396;SDS011;66045;51.622;5.526;2023-01-15T04:22:01;3.25;;;1.17;;
76396;SDS011;66045;51.622;5.526;2023-01-15T04:24:26;3.55;;;1.23;;
76396;SDS011;66045;51.622;5.526;2023-01-15T04:26:52;4.63;;;1.30;;
76396;SDS011;66045;51.622;5.526;2023-01-15T04:29:17;3.67;;;1.38;;
76396;SDS011;66045;51.622;5.526;2023-01-15T04:31:43;3.00;;;1.30;;
76396;SDS011;66045;51.622;5.526;2023-01-15T04:34:08;3.70;;;1.30;;
76396;SDS011;66045;51.622;5.526;2023-01-15T04:36:33;2.45;;;1.10;;
76396;SDS011;66045;51.622;5.526;2023-01-15T04:39:02;2.83;;;1.10;;
76396;SDS011;66045;51.622;5.526;2023-01-15T04:41:28;2.90;;;1.13;;
76396;SDS011;66045;51.622;5.526;2023-01-15T04:44:13;3.28;;;1.15;;
76396;SDS011;66045;51.622;5.526;2023-01-15T04:46:39;3.55;;;1.45;;
76396;SDS011;66045;51.622;5.526;2023-01-15T04:49:09;2.13;;;1.02;;
76396;SDS011;66045;51.622;5.526;2023-01-15T04:51:36;3.30;;;1.02;;
76396;SDS011;66045;51.622;5.526;2023-01-15T04:54:03;3.17;;;1.10;;
76396;SDS011;66045;51.622;5.526;2023-01-15T04:56:30;2.60;;;1.05;;
76396;SDS011;66045;51.622;5.526;2023-01-15T04:58:58;3.28;;;1.10;;
76396;SDS011;66045;51.622;5.526;2023-01-15T05:01:24;3.10;;;1.17;;
76396;SDS011;66045;51.622;5.526;2023-01-15T05:03:49;3.13;;;1.30;;
76396;SDS011;66045;51.622;5.526;2023-01-15T05:06:15;2.33;;;0.90;;
76396;SDS011;66045;51.622;5.526;2023-01-15T05:08:42;3.40;;;1.45;;
76396;SDS011;66045;51.622;5.526;2023-01-15T05:11:08;4.30;;;1.10;;
76396;SDS011;66045;51.622;5.526;2023-01-15T05:13:33;3.13;;;1.20;;
76396;SDS011;66045;51.622;5.526;2023-01-15T05:18:51;3.60;;;1.20;;
76396;SDS011;66045;51.622;5.526;2023-01-15T05:21:18;1.95;;;1.27;;
76396;SDS011;66045;51.622;5.526;2023-01-15T05:23:46;4.93;;;1.25;;
76396;SDS011;66045;51.622;5.526;2023-01-15T05:26:12;3.28;;;1.13;;
76396;SDS011;66045;51.622;5.526;2023-01-15T05:28:38;2.17;;;0.85;;
76396;SDS011;66045;51.622;5.526;2023-01-15T05:31:22;2.83;;;1.08;;
76396;SDS011;66045;51.622;5.526;2023-01-15T05:33:48;1.75;;;0.85;;
76396;SDS011;66045;51.622;5.526;2023-01-15T05:36:16;3.80;;;1.20;;
76396;SDS011;66045;51.622;5.526;2023-01-15T05:38:43;2.55;;;1.10;;
76396;SDS011;66045;51.622;5.526;2023-01-15T05:41:13;3.10;;;1.00;;
76396;SDS011;66045;51.622;5.526;2023-01-15T05:46:26;2.22;;;0.90;;
76396;SDS011;66045;51.622;5.526;2023-01-15T05:48:52;3.88;;;1.15;;
76396;SDS011;66045;51.622;5.526;2023-01-15T05:51:17;2.60;;;1.20;;
76396;SDS011;66045;51.622;5.526;2023-01-15T05:53:42;3.95;;;0.90;;
76396;SDS011;66045;51.622;5.526;2023-01-15T05:56:08;4.88;;;1.10;;
76396;SDS011;66045;51.622;5.526;2023-01-15T05:58:34;3.72;;;1.00;;
76396;SDS011;66045;51.622;5.526;2023-01-15T06:00:59;3.63;;;0.90;;
76396;SDS011;66045;51.622;5.526;2023-01-15T06:03:25;2.78;;;0.98;;
76396;SDS011;66045;51.622;5.526;2023-01-15T06:05:54;3.17;;;1.15;;
76396;SDS011;66045;51.622;5.526;2023-01-15T06:08:20;2.40;;;0.90;;
76396;SDS011;66045;51.622;5.526;2023-01-15T06:10:47;2.88;;;0.95;;
76396;SDS011;66045;51.622;5.526;2023-01-15T06:13:13;3.45;;;1.00;;
76396;SDS011;66045;51.622;5.526;2023-01-15T06:15:39;3.35;;;1.00;;
76396;SDS011;66045;51.622;5.526;2023-01-15T06:18:05;2.50;;;1.00;;
76396;SDS011;66045;51.622;5.526;2023-01-15T06:20:35;3.45;;;1.00;;
76396;SDS011;66045;51.622;5.526;2023-01-15T06:23:01;3.42;;;1.00;;
76396;SDS011;66045;51.622;5.526;2023-01-15T06:25:26;2.83;;;1.00;;
76396;SDS011;66045;51.622;5.526;2023-01-15T06:27:52;3.17;;;1.10;;
76396;SDS011;66045;51.622;5.526;2023-01-15T06:30:17;3.47;;;1.00;;
76396;SDS011;66045;51.622;5.526;2023-01-15T06:32:43;2.95;;;1.02;;
76396;SDS011;66045;51.622;5.526;2023-01-15T06:35:08;3.05;;;0.88;;
76396;SDS011;66045;51.622;5.526;2023-01-15T06:37:34;3.33;;;1.00;;
76396;SDS011;66045;51.622;5.526;2023-01-15T06:39:59;2.10;;;0.80;;
76396;SDS011;66045;51.622;5.526;2023-01-15T06:42:25;3.53;;;1.08;;
76396;SDS011;66045;51.622;5.526;2023-01-15T06:45:09;3.95;;;0.95;;
76396;SDS011;66045;51.622;5.526;2023-01-15T06:47:53;2.78;;;0.80;;
76396;SDS011;66045;51.622;5.526;2023-01-15T06:50:19;3.30;;;1.08;;
76396;SDS011;66045;51.622;5.526;2023-01-15T06:52:45;4.65;;;1.52;;
76396;SDS011;66045;51.622;5.526;2023-01-15T06:55:10;2.70;;;0.93;;
76396;SDS011;66045;51.622;5.526;2023-01-15T06:57:39;2.90;;;1.10;;
76396;SDS011;66045;51.622;5.526;2023-01-15T07:00:07;4.13;;;1.10;;
76396;SDS011;66045;51.622;5.526;2023-01-15T07:02:33;3.95;;;1.00;;
76396;SDS011;66045;51.622;5.526;2023-01-15T07:04:59;2.78;;;1.42;;
76396;SDS011;66045;51.622;5.526;2023-01-15T07:07:26;3.25;;;0.90;;
76396;SDS011;66045;51.622;5.526;2023-01-15T07:09:52;3.28;;;0.90;;
76396;SDS011;66045;51.622;5.526;2023-01-15T07:12:18;4.13;;;0.90;;
76396;SDS011;66045;51.622;5.526;2023-01-15T07:14:43;3.00;;;1.00;;
76396;SDS011;66045;51.622;5.526;2023-01-15T07:17:09;3.20;;;0.93;;
76396;SDS011;66045;51.622;5.526;2023-01-15T07:19:35;3.55;;;1.35;;
76396;SDS011;66045;51.622;5.526;2023-01-15T07:22:01;4.57;;;1.10;;
76396;SDS011;66045;51.622;5.526;2023-01-15T07:24:26;2.28;;;0.85;;
76396;SDS011;66045;51.622;5.526;2023-01-15T07:26:51;1.85;;;0.88;;
76396;SDS011;66045;51.622;5.526;2023-01-15T07:29:17;2.83;;;1.15;;
76396;SDS011;66045;51.622;5.526;2023-01-15T07:31:42;4.90;;;0.85;;
76396;SDS011;66045;51.622;5.526;2023-01-15T07:34:08;2.15;;;1.13;;
76396;SDS011;66045;51.622;5.526;2023-01-15T07:36:34;3.58;;;0.95;;
76396;SDS011;66045;51.622;5.526;2023-01-15T07:38:59;2.38;;;0.82;;
76396;SDS011;66045;51.622;5.526;2023-01-15T07:41:24;3.15;;;1.00;;
76396;SDS011;66045;51.622;5.526;2023-01-15T07:44:09;2.00;;;0.70;;
76396;SDS011;66045;51.622;5.526;2023-01-15T07:46:54;3.45;;;0.98;;
76396;SDS011;66045;51.622;5.526;2023-01-15T07:49:38;2.50;;;0.80;;
76396;SDS011;66045;51.622;5.526;2023-01-15T07:52:09;1.77;;;1.00;;
76396;SDS011;66045;51.622;5.526;2023-01-15T07:54:35;3.20;;;0.90;;
76396;SDS011;66045;51.622;5.526;2023-01-15T07:57:00;3.08;;;1.00;;
76396;SDS011;66045;51.622;5.526;2023-01-15T07:59:26;2.95;;;1.10;;
76396;SDS011;66045;51.622;5.526;2023-01-15T08:01:51;2.28;;;0.70;;
76396;SDS011;66045;51.622;5.526;2023-01-15T08:04:17;2.10;;;0.90;;
76396;SDS011;66045;51.622;5.526;2023-01-15T08:06:42;3.28;;;0.90;;
76396;SDS011;66045;51.622;5.526;2023-01-15T08:09:07;2.80;;;0.80;;
76396;SDS011;66045;51.622;5.526;2023-01-15T08:11:33;2.75;;;0.88;;
76396;SDS011;66045;51.622;5.526;2023-01-15T08:14:17;3.38;;;1.05;;
76396;SDS011;66045;51.622;5.526;2023-01-15T08:17:02;4.28;;;1.00;;
76396;SDS011;66045;51.622;5.526;2023-01-15T08:19:28;3.15;;;0.98;;
76396;SDS011;66045;51.622;5.526;2023-01-15T08:21:54;3.08;;;0.88;;
76396;SDS011;66045;51.622;5.526;2023-01-15T08:24:20;2.78;;;0.80;;
76396;SDS011;66045;51.622;5.526;2023-01-15T08:26:46;2.70;;;1.00;;
76396;SDS011;66045;51.622;5.526;2023-01-15T08:29:11;2.72;;;0.70;;
76396;SDS011;66045;51.622;5.526;2023-01-15T08:31:37;2.63;;;0.80;;
76396;SDS011;66045;51.622;5.526;2023-01-15T08:34:04;1.25;;;0.73;;
76396;SDS011;66045;51.622;5.526;2023-01-15T08:36:29;2.05;;;0.80;;
76396;SDS011;66045;51.622;5.526;2023-01-15T08:38:55;1.88;;;0.80;;
76396;SDS011;66045;51.622;5.526;2023-01-15T08:41:20;1.88;;;0.70;;
76396;SDS011;66045;51.622;5.526;2023-01-15T08:43:45;3.05;;;0.90;;
76396;SDS011;66045;51.622;5.526;2023-01-15T08:46:11;2.45;;;1.00;;
76396;SDS011;66045;51.622;5.526;2023-01-15T08:48:36;3.53;;;0.90;;
76396;SDS011;66045;51.622;5.526;2023-01-15T08:51:03;2.25;;;0.80;;
76396;SDS011;66045;51.622;5.526;2023-01-15T08:53:29;2.83;;;0.93;;
76396;SDS011;66045;51.622;5.526;2023-01-15T08:55:55;1.40;;;0.88;;
76396;SDS011;66045;51.622;5.526;2023-01-15T08:58:20;2.05;;;0.93;;
76396;SDS011;66045;51.622;5.526;2023-01-15T09:00:46;3.80;;;0.80;;
76396;SDS011;66045;51.622;5.526;2023-01-15T09:03:12;2.33;;;0.80;;
76396;SDS011;66045;51.622;5.526;2023-01-15T09:05:38;4.35;;;0.75;;
76396;SDS011;66045;51.622;5.526;2023-01-15T09:08:04;1.70;;;0.80;;
76396;SDS011;66045;51.622;5.526;2023-01-15T09:10:30;1.98;;;0.90;;
76396;SDS011;66045;51.622;5.526;2023-01-15T09:12:59;3.90;;;1.00;;
76396;SDS011;66045;51.622;5.526;2023-01-15T09:15:26;2.90;;;0.90;;
76396;SDS011;66045;51.622;5.526;2023-01-15T09:17:52;2.28;;;0.77;;
76396;SDS011;66045;51.622;5.526;2023-01-15T09:20:18;2.58;;;0.65;;
76396;SDS011;66045;51.622;5.526;2023-01-15T09:22:43;3.22;;;0.93;;
76396;SDS011;66045;51.622;5.526;2023-01-15T09:25:09;1.95;;;0.70;;
76396;SDS011;66045;51.622;5.526;2023-01-15T09:27:34;2.38;;;0.88;;
76396;SDS011;66045;51.622;5.526;2023-01-15T09:30:01;3.10;;;1.10;;
76396;SDS011;66045;51.622;5.526;2023-01-15T09:32:28;4.03;;;0.98;;
76396;SDS011;66045;51.622;5.526;2023-01-15T09:34:53;2.22;;;0.90;;
76396;SDS011;66045;51.622;5.526;2023-01-15T09:37:19;2.20;;;0.80;;
76396;SDS011;66045;51.622;5.526;2023-01-15T09:39:44;3.60;;;1.20;;
76396;SDS011;66045;51.622;5.526;2023-01-15T09:56:01;2.67;;;0.82;;
76396;SDS011;66045;51.622;5.526;2023-01-15T09:58:35;2.60;;;1.00;;
76396;SDS011;66045;51.622;5.526;2023-01-15T10:01:03;2.70;;;0.70;;
76396;SDS011;66045;51.622;5.526;2023-01-15T10:04:03;1.98;;;0.95;;
76396;SDS011;66045;51.622;5.526;2023-01-15T10:06:39;3.78;;;1.13;;
76396;SDS011;66045;51.622;5.526;2023-01-15T10:09:28;2.40;;;0.80;;
76396;SDS011;66045;51.622;5.526;2023-01-15T10:12:03;4.05;;;0.90;;
76396;SDS011;66045;51.622;5.526;2023-01-15T10:15:01;5.85;;;1.17;;
76396;SDS011;66045;51.622;5.526;2023-01-15T10:17:39;2.55;;;1.00;;
76396;SDS011;66045;51.622;5.526;2023-01-15T10:22:52;4.28;;;1.02;;
76396;SDS011;66045;51.622;5.526;2023-01-15T10:25:24;6.43;;;1.30;;
76396;SDS011;66045;51.622;5.526;2023-01-15T10:27:56;5.38;;;1.23;;
76396;SDS011;66045;51.622;5.526;2023-01-15T10:30:32;5.63;;;1.45;;
76396;SDS011;66045;51.622;5.526;2023-01-15T10:33:14;4.22;;;1.05;;
76396;SDS011;66045;51.622;5.526;2023-01-15T10:38:59;5.38;;;1.10;;
76396;SDS011;66045;51.622;5.526;2023-01-15T10:44:36;2.72;;;1.05;;
76396;SDS011;66045;51.622;5.526;2023-01-15T10:47:25;3.58;;;0.90;;
76396;SDS011;66045;51.622;5.526;2023-01-15T10:49:57;4.68;;;0.90;;
76396;SDS011;66045;51.622;5.526;2023-01-15T10:52:30;4.00;;;1.13;;
76396;SDS011;66045;51.622;5.526;2023-01-15T10:57:53;3.83;;;1.20;;
76396;SDS011;66045;51.622;5.526;2023-01-15T11:00:19;3.15;;;1.08;;
76396;SDS011;66045;51.622;5.526;2023-01-15T11:02:48;4.45;;;1.20;;
76396;SDS011;66045;51.622;5.526;2023-01-15T11:05:24;3.15;;;0.90;;
76396;SDS011;66045;51.622;5.526;2023-01-15T11:07:51;5.30;;;1.02;;
76396;SDS011;66045;51.622;5.526;2023-01-15T11:10:18;5.13;;;1.00;;
76396;SDS011;66045;51.622;5.526;2023-01-15T11:15:43;6.25;;;1.23;;
76396;SDS011;66045;51.622;5.526;2023-01-15T11:18:30;3.00;;;1.27;;
76396;SDS011;66045;51.622;5.526;2023-01-15T11:21:18;5.63;;;1.15;;
76396;SDS011;66045;51.622;5.526;2023-01-15T11:23:47;4.90;;;1.40;;
76396;SDS011;66045;51.622;5.526;2023-01-15T11:26:21;5.07;;;1.08;;
76396;SDS011;66045;51.622;5.526;2023-01-15T11:28:49;5.13;;;1.35;;
76396;SDS011;66045;51.622;5.526;2023-01-15T11:31:17;3.25;;;1.05;;
76396;SDS011;66045;51.622;5.526;2023-01-15T11:33:43;2.67;;;1.10;;
76396;SDS011;66045;51.622;5.526;2023-01-15T11:36:22;3.75;;;1.02;;
76396;SDS011;66045;51.622;5.526;2023-01-15T11:38:49;3.85;;;1.25;;
76396;SDS011;66045;51.622;5.526;2023-01-15T11:44:12;3.75;;;1.17;;
76396;SDS011;66045;51.622;5.526;2023-01-15T11:46:57;2.88;;;0.98;;
76396;SDS011;66045;51.622;5.526;2023-01-15T11:49:49;4.28;;;1.10;;
76396;SDS011;66045;51.622;5.526;2023-01-15T11:52:35;3.72;;;0.95;;
76396;SDS011;66045;51.622;5.526;2023-01-15T11:55:02;2.88;;;1.15;;
76396;SDS011;66045;51.622;5.526;2023-01-15T11:57:35;5.10;;;1.00;;
76396;SDS011;66045;51.622;5.526;2023-01-15T12:00:01;3.78;;;1.55;;
76396;SDS011;66045;51.622;5.526;2023-01-15T12:02:30;5.75;;;1.20;;
76396;SDS011;66045;51.622;5.526;2023-01-15T12:04:59;3.58;;;1.05;;
76396;SDS011;66045;51.622;5.526;2023-01-15T12:07:27;3.95;;;0.88;;
76396;SDS011;66045;51.622;5.526;2023-01-15T12:12:31;3.35;;;0.80;;
76396;SDS011;66045;51.622;5.526;2023-01-15T12:20:31;3.65;;;1.05;;
76396;SDS011;66045;51.622;5.526;2023-01-15T12:26:01;7.25;;;1.23;;
76396;SDS011;66045;51.622;5.526;2023-01-15T12:28:52;3.97;;;1.30;;
76396;SDS011;66045;51.622;5.526;2023-01-15T12:32:06;5.30;;;1.33;;
76396;SDS011;66045;51.622;5.526;2023-01-15T12:34:23;3.45;;;0.90;;
76396;SDS011;66045;51.622;5.526;2023-01-15T12:36:59;2.55;;;0.93;;
76396;SDS011;66045;51.622;5.526;2023-01-15T12:39:43;3.53;;;1.10;;
76396;SDS011;66045;51.622;5.526;2023-01-15T12:42:17;3.72;;;1.00;;
76396;SDS011;66045;51.622;5.526;2023-01-15T12:45:07;5.10;;;1.30;;
76396;SDS011;66045;51.622;5.526;2023-01-15T12:50:43;5.78;;;0.98;;
76396;SDS011;66045;51.622;5.526;2023-01-15T12:53:29;3.65;;;1.05;;
76396;SDS011;66045;51.622;5.526;2023-01-15T13:01:16;4.40;;;1.10;;
76396;SDS011;66045;51.622;5.526;2023-01-15T13:06:34;4.55;;;1.50;;
76396;SDS011;66045;51.622;5.526;2023-01-15T13:11:52;8.27;;;2.67;;
76396;SDS011;66045;51.622;5.526;2023-01-15T13:14:17;4.93;;;2.05;;
76396;SDS011;66045;51.622;5.526;2023-01-15T13:16:53;7.80;;;2.15;;
76396;SDS011;66045;51.622;5.526;2023-01-15T13:21:54;4.00;;;1.40;;
76396;SDS011;66045;51.622;5.526;2023-01-15T13:34:46;5.32;;;1.80;;
76396;SDS011;66045;51.622;5.526;2023-01-15T13:37:17;4.18;;;1.60;;
76396;SDS011;66045;51.622;5.526;2023-01-15T13:39:57;4.75;;;1.65;;
76396;SDS011;66045;51.622;5.526;2023-01-15T13:42:25;3.10;;;1.63;;
76396;SDS011;66045;51.622;5.526;2023-01-15T13:45:05;5.93;;;2.08;;
76396;SDS011;66045;51.622;5.526;2023-01-15T13:47:52;5.60;;;1.77;;
76396;SDS011;66045;51.622;5.526;2023-01-15T13:50:32;4.07;;;1.40;;
76396;SDS011;66045;51.622;5.526;2023-01-15T13:53:01;3.40;;;1.60;;
76396;SDS011;66045;51.622;5.526;2023-01-15T13:55:32;4.53;;;1.88;;
76396;SDS011;66045;51.622;5.526;2023-01-15T13:58:00;6.00;;;1.63;;
76396;SDS011;66045;51.622;5.526;2023-01-15T14:00:30;4.22;;;1.50;;
76396;SDS011;66045;51.622;5.526;2023-01-15T14:05:53;6.40;;;1.63;;
76396;SDS011;66045;51.622;5.526;2023-01-15T14:08:27;4.38;;;1.52;;
76396;SDS011;66045;51.622;5.526;2023-01-15T14:11:00;4.72;;;1.38;;
76396;SDS011;66045;51.622;5.526;2023-01-15T14:19:04;6.72;;;1.17;;
76396;SDS011;66045;51.622;5.526;2023-01-15T14:22:05;2.53;;;1.15;;
76396;SDS011;66045;51.622;5.526;2023-01-15T14:24:48;4.70;;;1.35;;
76396;SDS011;66045;51.622;5.526;2023-01-15T14:30:00;6.03;;;1.70;;
76396;SDS011;66045;51.622;5.526;2023-01-15T14:35:15;4.90;;;1.38;;
76396;SDS011;66045;51.622;5.526;2023-01-15T14:37:55;3.95;;;1.17;;
76396;SDS011;66045;51.622;5.526;2023-01-15T14:40:25;2.97;;;1.30;;
76396;SDS011;66045;51.622;5.526;2023-01-15T14:42:54;3.17;;;1.10;;
76396;SDS011;66045;51.622;5.526;2023-01-15T14:45:46;2.33;;;0.98;;
76396;SDS011;66045;51.622;5.526;2023-01-15T14:51:07;3.45;;;1.17;;
76396;SDS011;66045;51.622;5.526;2023-01-15T14:56:22;6.78;;;1.30;;
76396;SDS011;66045;51.622;5.526;2023-01-15T15:01:36;5.10;;;1.77;;
76396;SDS011;66045;51.622;5.526;2023-01-15T15:15:20;3.80;;;1.40;;
76396;SDS011;66045;51.622;5.526;2023-01-15T15:23:14;5.18;;;1.60;;
76396;SDS011;66045;51.622;5.526;2023-01-15T15:25:47;3.60;;;1.30;;
76396;SDS011;66045;51.622;5.526;2023-01-15T15:28:19;3.70;;;1.17;;
76396;SDS011;66045;51.622;5.526;2023-01-15T15:30:44;2.60;;;1.10;;
76396;SDS011;66045;51.622;5.526;2023-01-15T15:33:12;2.85;;;1.20;;
76396;SDS011;66045;51.622;5.526;2023-01-15T15:35:43;3.70;;;1.10;;
76396;SDS011;66045;51.622;5.526;2023-01-15T15:38:15;2.85;;;0.95;;
76396;SDS011;66045;51.622;5.526;2023-01-15T15:40:44;4.60;;;1.10;;
76396;SDS011;66045;51.622;5.526;2023-01-15T15:43:39;3.20;;;1.23;;
76396;SDS011;66045;51.622;5.526;2023-01-15T15:46:27;4.63;;;1.50;;
76396;SDS011;66045;51.622;5.526;2023-01-15T15:49:15;4.28;;;1.20;;
76396;SDS011;66045;51.622;5.526;2023-01-15T15:54:13;4.13;;;1.20;;
76396;SDS011;66045;51.622;5.526;2023-01-15T15:56:43;3.50;;;1.33;;
76396;SDS011;66045;51.622;5.526;2023-01-15T15:59:16;3.25;;;1.10;;
76396;SDS011;66045;51.622;5.526;2023-01-15T16:01:53;2.42;;;1.00;;
76396;SDS011;66045;51.622;5.526;2023-01-15T16:04:21;4.03;;;1.20;;
76396;SDS011;66045;51.622;5.526;2023-01-15T16:06:46;3.85;;;1.02;;
76396;SDS011;66045;51.622;5.526;2023-01-15T16:09:13;6.07;;;1.48;;
76396;SDS011;66045;51.622;5.526;2023-01-15T16:11:43;2.83;;;1.05;;
76396;SDS011;66045;51.622;5.526;2023-01-15T16:14:09;4.03;;;0.93;;
76396;SDS011;66045;51.622;5.526;2023-01-15T16:16:39;2.42;;;0.73;;
76396;SDS011;66045;51.622;5.526;2023-01-15T16:19:05;2.53;;;1.00;;
76396;SDS011;66045;51.622;5.526;2023-01-15T16:21:34;3.42;;;1.00;;
76396;SDS011;66045;51.622;5.526;2023-01-15T16:24:02;3.95;;;0.95;;
76396;SDS011;66045;51.622;5.526;2023-01-15T16:29:21;3.67;;;0.90;;
76396;SDS011;66045;51.622;5.526;2023-01-15T16:31:55;6.55;;;1.60;;
76396;SDS011;66045;51.622;5.526;2023-01-15T16:34:24;3.03;;;1.02;;
76396;SDS011;66045;51.622;5.526;2023-01-15T16:36:52;3.42;;;1.00;;
76396;SDS011;66045;51.622;5.526;2023-01-15T16:41:56;2.78;;;0.90;;
76396;SDS011;66045;51.622;5.526;2023-01-15T16:47:01;2.67;;;1.13;;
76396;SDS011;66045;51.622;5.526;2023-01-15T16:49:29;3.42;;;0.90;;
76396;SDS011;66045;51.622;5.526;2023-01-15T16:51:56;4.10;;;0.80;;
76396;SDS011;66045;51.622;5.526;2023-01-15T16:56:58;2.78;;;0.85;;
76396;SDS011;66045;51.622;5.526;2023-01-15T17:04:41;2.63;;;0.90;;
76396;SDS011;66045;51.622;5.526;2023-01-15T17:09:50;6.18;;;1.33;;
76396;SDS011;66045;51.622;5.526;2023-01-15T17:17:49;2.45;;;0.90;;
76396;SDS011;66045;51.622;5.526;2023-01-15T17:20:15;3.95;;;0.98;;
76396;SDS011;66045;51.622;5.526;2023-01-15T17:22:43;4.38;;;0.90;;
76396;SDS011;66045;51.622;5.526;2023-01-15T17:27:47;2.25;;;0.80;;
76396;SDS011;66045;51.622;5.526;2023-01-15T17:30:13;2.55;;;0.80;;
76396;SDS011;66045;51.622;5.526;2023-01-15T17:32:39;2.90;;;0.85;;
76396;SDS011;66045;51.622;5.526;2023-01-15T17:35:06;1.73;;;0.90;;
76396;SDS011;66045;51.622;5.526;2023-01-15T17:37:52;2.90;;;0.80;;
76396;SDS011;66045;51.622;5.526;2023-01-15T17:40:18;1.98;;;0.80;;
76396;SDS011;66045;51.622;5.526;2023-01-15T17:42:43;2.90;;;0.75;;
76396;SDS011;66045;51.622;5.526;2023-01-15T17:45:19;1.27;;;0.70;;
76396;SDS011;66045;51.622;5.526;2023-01-15T17:47:49;2.30;;;0.90;;
76396;SDS011;66045;51.622;5.526;2023-01-15T17:50:15;1.52;;;0.80;;
76396;SDS011;66045;51.622;5.526;2023-01-15T17:52:41;3.30;;;0.90;;
76396;SDS011;66045;51.622;5.526;2023-01-15T17:55:10;4.32;;;1.10;;